Time;durP1;ratioP1;P1;durP2;ratioP2;P2;SDS_P1;SDS_P2;PMS_P1;PMS_P2;Temp;Humidity;BMP_temperature;BMP_pressure;BME280_temperature;BME280_humidity;BME280_pressure;Samples;Min_cycle;Max_cycle;Signal;HPM_P1;HPM_P2
2023/07/23 00:00:51;;;;;;;3.72;2.58;;;;;;;;;;4974060;28;20034;-81
2023/07/23 00:03:17;;;;;;;3.20;2.50;;;;;;;;;;4969912;28;20027;-82
2023/07/23 00:05:46;;;;;;;4.72;2.35;;;;;;;;;;4974257;28;20030;-82
2023/07/23 00:08:11;;;;;;;3.10;2.33;;;;;;;;;;4969112;28;20031;-83
2023/07/23 00:10:37;;;;;;;4.75;2.60;;;;;;;;;;4973671;28;20027;-83
2023/07/23 00:13:02;;;;;;;3.95;2.38;;;;;;;;;;4973442;28;20066;-83
2023/07/23 00:15:28;;;;;;;4.55;2.63;;;;;;;;;;4955049;28;20031;-83
2023/07/23 00:17:56;;;;;;;4.82;2.70;;;;;;;;;;4953646;28;20614;-81
2023/07/23 00:20:22;;;;;;;5.82;2.65;;;;;;;;;;4970473;28;20479;-81
2023/07/23 00:22:47;;;;;;;4.63;2.35;;;;;;;;;;4967641;28;20031;-82
2023/07/23 00:25:13;;;;;;;6.47;2.60;;;;;;;;;;4953666;28;20587;-81
2023/07/23 00:27:38;;;;;;;5.50;2.72;;;;;;;;;;4973923;28;20035;-84
2023/07/23 00:30:05;;;;;;;5.65;2.58;;;;;;;;;;4971232;28;20506;-82
2023/07/23 00:32:32;;;;;;;4.03;2.42;;;;;;;;;;4953030;28;20030;-82
2023/07/23 00:34:58;;;;;;;4.63;2.75;;;;;;;;;;4961235;28;20042;-81
2023/07/23 00:37:23;;;;;;;4.25;2.63;;;;;;;;;;4954475;28;20502;-83
2023/07/23 00:39:49;;;;;;;3.30;2.53;;;;;;;;;;4961061;28;20029;-81
2023/07/23 00:42:14;;;;;;;4.40;2.50;;;;;;;;;;4972864;28;20521;-82
2023/07/23 00:44:40;;;;;;;3.20;2.25;;;;;;;;;;4954755;28;20122;-83
2023/07/23 00:47:06;;;;;;;3.50;2.50;;;;;;;;;;4970157;28;20031;-81
2023/07/23 00:49:32;;;;;;;3.83;2.58;;;;;;;;;;4954015;28;20031;-82
2023/07/23 00:51:58;;;;;;;5.07;2.58;;;;;;;;;;4962505;28;20086;-80
2023/07/23 00:54:24;;;;;;;4.38;2.78;;;;;;;;;;4976287;28;20106;-81
2023/07/23 00:56:50;;;;;;;5.75;2.90;;;;;;;;;;4974479;28;20039;-82
2023/07/23 00:59:17;;;;;;;3.30;2.40;;;;;;;;;;4973388;28;20037;-81
2023/07/23 01:01:42;;;;;;;3.78;2.45;;;;;;;;;;4977853;28;20169;-83
2023/07/23 01:04:07;;;;;;;4.20;2.60;;;;;;;;;;4977501;28;20082;-82
2023/07/23 01:06:36;;;;;;;4.82;2.28;;;;;;;;;;4978081;28;20031;-82
2023/07/23 01:09:04;;;;;;;4.13;2.50;;;;;;;;;;4963089;28;20493;-81
2023/07/23 01:11:30;;;;;;;3.58;2.50;;;;;;;;;;4960203;28;20035;-83
2023/07/23 01:13:57;;;;;;;3.53;2.40;;;;;;;;;;4970870;28;20047;-81
2023/07/23 01:16:24;;;;;;;3.55;2.50;;;;;;;;;;4979195;28;20043;-82
2023/07/23 01:18:50;;;;;;;5.43;2.40;;;;;;;;;;4982283;28;20061;-82
2023/07/23 01:21:16;;;;;;;3.80;2.47;;;;;;;;;;4981326;28;20042;-82
2023/07/23 01:23:43;;;;;;;3.58;2.47;;;;;;;;;;4964817;28;20042;-81
2023/07/23 01:26:08;;;;;;;4.07;2.50;;;;;;;;;;4952384;28;20054;-80
2023/07/23 01:28:34;;;;;;;5.57;2.50;;;;;;;;;;4966600;28;20043;-81
2023/07/23 01:31:00;;;;;;;2.88;2.17;;;;;;;;;;4968402;28;20050;-82
2023/07/23 01:33:26;;;;;;;4.00;2.45;;;;;;;;;;4976624;28;20121;-82
2023/07/23 01:35:57;;;;;;;3.47;2.45;;;;;;;;;;4975718;28;20050;-82
2023/07/23 01:38:23;;;;;;;4.10;2.50;;;;;;;;;;4980812;28;20035;-83
2023/07/23 01:40:50;;;;;;;3.72;2.40;;;;;;;;;;4979936;28;20049;-82
2023/07/23 01:43:16;;;;;;;4.45;2.90;;;;;;;;;;4978572;28;20067;-83
2023/07/23 01:45:43;;;;;;;3.88;2.50;;;;;;;;;;4977547;28;20043;-83
2023/07/23 01:48:08;;;;;;;4.45;2.40;;;;;;;;;;4994717;23;20046;-83
2023/07/23 01:50:34;;;;;;;3.70;2.40;;;;;;;;;;4975956;28;20396;-83
2023/07/23 01:52:59;;;;;;;3.85;2.40;;;;;;;;;;4991998;28;20043;-83
2023/07/23 01:55:25;;;;;;;4.22;2.33;;;;;;;;;;4975888;28;20116;-84
2023/07/23 01:57:50;;;;;;;7.25;2.70;;;;;;;;;;4976845;28;20105;-84
2023/07/23 02:00:16;;;;;;;4.20;2.58;;;;;;;;;;4959827;28;20112;-84
2023/07/23 02:02:41;;;;;;;3.92;2.67;;;;;;;;;;4992120;28;20046;-84
2023/07/23 02:05:07;;;;;;;3.78;2.53;;;;;;;;;;4975418;28;20034;-83
2023/07/23 02:07:33;;;;;;;3.53;2.50;;;;;;;;;;4975221;28;20035;-83
2023/07/23 02:09:58;;;;;;;4.25;2.45;;;;;;;;;;4975404;28;20490;-84
2023/07/23 02:12:24;;;;;;;4.00;2.30;;;;;;;;;;4971902;28;20039;-83
2023/07/23 02:14:49;;;;;;;4.45;2.30;;;;;;;;;;4991880;28;20129;-84
2023/07/23 02:17:15;;;;;;;4.60;2.70;;;;;;;;;;4975439;28;20039;-84
2023/07/23 02:19:42;;;;;;;3.65;2.60;;;;;;;;;;4991476;28;20384;-83
2023/07/23 02:22:07;;;;;;;5.55;2.33;;;;;;;;;;4975232;28;20097;-84
2023/07/23 02:24:33;;;;;;;4.80;2.65;;;;;;;;;;4975758;28;20058;-84
2023/07/23 02:26:59;;;;;;;6.45;2.42;;;;;;;;;;4991320;28;20130;-84
2023/07/23 02:29:24;;;;;;;4.95;2.50;;;;;;;;;;4976511;28;20031;-83
2023/07/23 02:31:49;;;;;;;5.20;2.22;;;;;;;;;;4976303;28;20042;-84
2023/07/23 02:34:15;;;;;;;5.47;2.40;;;;;;;;;;4991762;28;20038;-83
2023/07/23 02:36:41;;;;;;;4.63;2.53;;;;;;;;;;4975810;28;20061;-84
2023/07/23 02:39:06;;;;;;;4.97;2.50;;;;;;;;;;4991305;28;20406;-84
2023/07/23 02:41:31;;;;;;;3.50;2.17;;;;;;;;;;4991568;28;20080;-84
2023/07/23 02:43:57;;;;;;;4.63;2.35;;;;;;;;;;4974922;28;20540;-84
2023/07/23 02:46:23;;;;;;;4.22;2.30;;;;;;;;;;4975910;28;20077;-84
2023/07/23 02:48:48;;;;;;;3.75;2.30;;;;;;;;;;4991007;28;20035;-84
2023/07/23 02:51:14;;;;;;;4.00;2.30;;;;;;;;;;4976282;28;20058;-84
2023/07/23 02:53:39;;;;;;;4.22;2.40;;;;;;;;;;4975796;28;20490;-84
2023/07/23 02:56:05;;;;;;;4.00;2.40;;;;;;;;;;4975534;28;20031;-84
2023/07/23 02:58:30;;;;;;;5.80;2.80;;;;;;;;;;4990813;28;20037;-84
2023/07/23 03:00:56;;;;;;;4.00;2.50;;;;;;;;;;4974636;28;20085;-84
2023/07/23 03:03:23;;;;;;;3.97;2.40;;;;;;;;;;4990847;28;20034;-84
2023/07/23 03:05:48;;;;;;;3.63;2.38;;;;;;;;;;4975567;28;20089;-83
2023/07/23 03:08:14;;;;;;;4.05;2.45;;;;;;;;;;4974161;28;20038;-84
2023/07/23 03:10:40;;;;;;;4.35;2.35;;;;;;;;;;4990987;28;20038;-84
2023/07/23 03:13:06;;;;;;;3.67;2.50;;;;;;;;;;4990713;28;20409;-83
2023/07/23 03:15:32;;;;;;;3.47;2.22;;;;;;;;;;4974272;28;20057;-83
2023/07/23 03:17:57;;;;;;;4.40;2.38;;;;;;;;;;4974117;28;20547;-83
2023/07/23 03:20:23;;;;;;;3.88;2.38;;;;;;;;;;4988533;28;20070;-83
2023/07/23 03:22:48;;;;;;;3.67;2.30;;;;;;;;;;4988191;28;20039;-83
2023/07/23 03:25:14;;;;;;;4.68;2.40;;;;;;;;;;4969860;28;20132;-83
2023/07/23 03:27:39;;;;;;;3.78;2.47;;;;;;;;;;4971911;28;20105;-83
2023/07/23 03:30:06;;;;;;;4.32;2.55;;;;;;;;;;4973636;28;20386;-83
2023/07/23 03:32:32;;;;;;;5.65;2.58;;;;;;;;;;4972145;28;20045;-83
2023/07/23 03:34:57;;;;;;;4.03;2.42;;;;;;;;;;4973496;28;20038;-82
2023/07/23 03:37:22;;;;;;;4.00;2.25;;;;;;;;;;4971952;28;20441;-82
2023/07/23 03:39:48;;;;;;;6.60;2.63;;;;;;;;;;4973478;28;20033;-82
2023/07/23 03:42:13;;;;;;;4.30;2.40;;;;;;;;;;4973393;28;20047;-83
2023/07/23 03:44:39;;;;;;;3.55;2.30;;;;;;;;;;4973299;28;20027;-83
2023/07/23 03:47:17;;;;;;;7.57;2.50;;;;;;;;;;4970947;28;20644;-82
2023/07/23 03:49:43;;;;;;;5.78;2.75;;;;;;;;;;4971099;28;20062;-82
2023/07/23 03:52:09;;;;;;;5.57;2.60;;;;;;;;;;4987194;28;20058;-83
2023/07/23 03:54:35;;;;;;;5.28;2.22;;;;;;;;;;4971255;28;20089;-83
2023/07/23 03:57:01;;;;;;;3.20;2.30;;;;;;;;;;4971951;28;20549;-82
2023/07/23 03:59:29;;;;;;;4.60;2.50;;;;;;;;;;4987036;28;20126;-82
2023/07/23 04:01:55;;;;;;;4.43;2.65;;;;;;;;;;4985460;28;20048;-83
2023/07/23 04:04:20;;;;;;;5.97;2.90;;;;;;;;;;4986914;28;20553;-83
2023/07/23 04:06:45;;;;;;;5.22;2.58;;;;;;;;;;4971762;28;20058;-82
2023/07/23 04:09:13;;;;;;;6.53;2.40;;;;;;;;;;4971884;28;20054;-82
2023/07/23 04:11:39;;;;;;;4.15;2.33;;;;;;;;;;4971943;28;20505;-83
2023/07/23 04:14:06;;;;;;;3.97;2.60;;;;;;;;;;4971924;28;20948;-82
2023/07/23 04:16:31;;;;;;;3.63;2.33;;;;;;;;;;4986715;28;20081;-82
2023/07/23 04:18:57;;;;;;;3.03;2.30;;;;;;;;;;4987221;28;20030;-83
2023/07/23 04:21:24;;;;;;;5.10;2.40;;;;;;;;;;4972076;28;20059;-83
2023/07/23 04:23:51;;;;;;;3.30;2.28;;;;;;;;;;4972010;28;20082;-83
2023/07/23 04:26:18;;;;;;;3.80;2.33;;;;;;;;;;4971800;28;20442;-83
2023/07/23 04:28:44;;;;;;;3.75;2.30;;;;;;;;;;4970371;28;20089;-83
2023/07/23 04:31:10;;;;;;;3.55;2.30;;;;;;;;;;4971689;28;20039;-83
2023/07/23 04:33:36;;;;;;;6.03;2.47;;;;;;;;;;4971034;28;20106;-83
2023/07/23 04:36:03;;;;;;;3.80;2.70;;;;;;;;;;4970465;28;20046;-83
2023/07/23 04:38:30;;;;;;;3.78;2.17;;;;;;;;;;4986761;28;20517;-83
2023/07/23 04:40:55;;;;;;;5.15;2.50;;;;;;;;;;4986842;28;20054;-83
2023/07/23 04:43:21;;;;;;;3.38;2.40;;;;;;;;;;4986680;28;20054;-83
2023/07/23 04:45:46;;;;;;;4.57;2.33;;;;;;;;;;4971387;28;20054;-83
2023/07/23 04:48:13;;;;;;;3.85;2.35;;;;;;;;;;4985448;28;20061;-82
2023/07/23 04:50:40;;;;;;;4.95;2.50;;;;;;;;;;4990985;28;20452;-83
2023/07/23 04:53:07;;;;;;;4.10;2.35;;;;;;;;;;4973833;28;20091;-83
2023/07/23 04:55:32;;;;;;;4.13;2.50;;;;;;;;;;4973237;28;20069;-83
2023/07/23 04:57:58;;;;;;;4.70;2.60;;;;;;;;;;4990569;28;20073;-83
2023/07/23 05:00:23;;;;;;;6.20;2.65;;;;;;;;;;4974041;28;20084;-83
2023/07/23 05:02:49;;;;;;;3.13;2.30;;;;;;;;;;4991267;28;20037;-83
2023/07/23 05:05:14;;;;;;;3.67;2.40;;;;;;;;;;4990956;28;20038;-83
2023/07/23 05:07:40;;;;;;;3.83;2.55;;;;;;;;;;4990493;28;20046;-83
2023/07/23 05:10:06;;;;;;;4.47;2.42;;;;;;;;;;4990624;28;20042;-82
2023/07/23 05:12:32;;;;;;;5.60;2.40;;;;;;;;;;4973470;28;20490;-83
2023/07/23 05:15:14;;;;;;;4.07;2.40;;;;;;;;;;4973301;28;20041;-83
2023/07/23 05:17:40;;;;;;;3.15;2.40;;;;;;;;;;4988993;28;20085;-83
2023/07/23 05:20:07;;;;;;;3.67;2.30;;;;;;;;;;4973505;28;20100;-83
2023/07/23 05:22:37;;;;;;;5.55;2.30;;;;;;;;;;4990729;28;20041;-83
2023/07/23 05:25:03;;;;;;;3.58;2.20;;;;;;;;;;4991031;28;20189;-82
2023/07/23 05:27:29;;;;;;;4.10;2.40;;;;;;;;;;4990346;28;20088;-83
2023/07/23 05:29:55;;;;;;;3.03;2.28;;;;;;;;;;4990538;28;20052;-83
2023/07/23 05:32:20;;;;;;;4.70;2.30;;;;;;;;;;4973134;28;20042;-83
2023/07/23 05:34:46;;;;;;;5.40;2.47;;;;;;;;;;4990722;28;20034;-83
2023/07/23 05:37:11;;;;;;;4.28;2.50;;;;;;;;;;4990291;28;20030;-83
2023/07/23 05:39:37;;;;;;;4.00;2.30;;;;;;;;;;4989338;28;20470;-83
2023/07/23 05:42:02;;;;;;;3.30;2.13;;;;;;;;;;4990549;28;20023;-82
2023/07/23 05:44:28;;;;;;;5.03;2.40;;;;;;;;;;4991690;28;20546;-83
2023/07/23 05:46:53;;;;;;;3.30;2.40;;;;;;;;;;4976666;28;20034;-83
2023/07/23 05:49:19;;;;;;;3.42;2.30;;;;;;;;;;4994390;28;20034;-83
2023/07/23 05:51:44;;;;;;;3.63;2.35;;;;;;;;;;4976470;28;20113;-83
2023/07/23 05:54:10;;;;;;;4.47;2.38;;;;;;;;;;4976368;28;20108;-82
2023/07/23 05:56:36;;;;;;;4.13;2.40;;;;;;;;;;4993694;28;20026;-82
2023/07/23 05:59:01;;;;;;;4.20;2.92;;;;;;;;;;4993751;28;20390;-82
2023/07/23 06:01:27;;;;;;;4.35;2.33;;;;;;;;;;4993636;28;20046;-82
2023/07/23 06:03:52;;;;;;;5.72;2.22;;;;;;;;;;4993977;28;20040;-82
2023/07/23 06:06:18;;;;;;;3.78;2.35;;;;;;;;;;4993651;28;20030;-82
2023/07/23 06:08:43;;;;;;;4.38;2.25;;;;;;;;;;4993551;28;20485;-82
2023/07/23 06:11:09;;;;;;;3.85;2.28;;;;;;;;;;4993684;28;20415;-82
2023/07/23 06:13:34;;;;;;;7.30;2.58;;;;;;;;;;4993650;28;20030;-83
2023/07/23 06:16:00;;;;;;;3.30;2.40;;;;;;;;;;4993790;28;20030;-83
2023/07/23 06:18:25;;;;;;;5.25;2.60;;;;;;;;;;4993591;28;20033;-83
2023/07/23 06:20:51;;;;;;;3.15;2.13;;;;;;;;;;4992564;28;20046;-82
2023/07/23 06:23:16;;;;;;;3.40;2.10;;;;;;;;;;4993623;28;20030;-82
2023/07/23 06:25:42;;;;;;;3.33;2.20;;;;;;;;;;4993391;28;20494;-82
2023/07/23 06:28:07;;;;;;;3.42;2.33;;;;;;;;;;4993203;28;20037;-82
2023/07/23 06:30:33;;;;;;;3.05;2.10;;;;;;;;;;4993354;28;20556;-83
2023/07/23 06:32:59;;;;;;;4.75;2.30;;;;;;;;;;4992177;28;20034;-81
2023/07/23 06:35:24;;;;;;;3.97;2.28;;;;;;;;;;4993335;28;20114;-81
2023/07/23 06:37:50;;;;;;;3.75;2.38;;;;;;;;;;4992881;28;20109;-82
2023/07/23 06:40:15;;;;;;;4.65;2.10;;;;;;;;;;4975710;28;20482;-81
2023/07/23 06:42:41;;;;;;;3.45;2.20;;;;;;;;;;4993161;28;20034;-81
2023/07/23 06:45:07;;;;;;;3.92;2.58;;;;;;;;;;4993039;28;20129;-81
2023/07/23 06:47:33;;;;;;;5.30;2.40;;;;;;;;;;4992586;28;20030;-82
2023/07/23 06:49:58;;;;;;;4.43;2.38;;;;;;;;;;4993512;28;20443;-82
2023/07/23 06:52:23;;;;;;;3.22;2.20;;;;;;;;;;4992735;28;20046;-83
2023/07/23 06:54:49;;;;;;;4.88;2.13;;;;;;;;;;4993250;28;20085;-82
2023/07/23 06:57:14;;;;;;;4.10;2.20;;;;;;;;;;4991905;28;20509;-83
2023/07/23 06:59:40;;;;;;;3.75;2.33;;;;;;;;;;4993032;28;20026;-82
2023/07/23 07:02:06;;;;;;;4.03;2.30;;;;;;;;;;4992570;28;20038;-82
2023/07/23 07:04:31;;;;;;;3.72;2.60;;;;;;;;;;4992483;28;20049;-83
2023/07/23 07:06:57;;;;;;;3.45;2.40;;;;;;;;;;4974883;28;20027;-83
2023/07/23 07:09:22;;;;;;;4.50;2.58;;;;;;;;;;4991065;28;20026;-82
2023/07/23 07:11:50;;;;;;;4.35;2.55;;;;;;;;;;4992020;28;20047;-83
2023/07/23 07:14:15;;;;;;;3.40;2.47;;;;;;;;;;4991055;28;20054;-84
2023/07/23 07:16:41;;;;;;;3.15;2.10;;;;;;;;;;4991915;28;20076;-83
2023/07/23 07:19:06;;;;;;;4.05;2.47;;;;;;;;;;4992233;28;20030;-81
2023/07/23 07:21:32;;;;;;;4.45;2.10;;;;;;;;;;4992515;28;20038;-81
2023/07/23 07:23:57;;;;;;;3.65;2.60;;;;;;;;;;4992232;28;20184;-82
2023/07/23 07:26:23;;;;;;;4.68;2.40;;;;;;;;;;4991967;28;20026;-82
2023/07/23 07:28:50;;;;;;;3.55;2.50;;;;;;;;;;4992178;28;20079;-82
2023/07/23 07:31:17;;;;;;;5.22;2.22;;;;;;;;;;4992031;28;20129;-82
2023/07/23 07:33:44;;;;;;;4.03;2.13;;;;;;;;;;4992200;28;20396;-81
2023/07/23 07:36:09;;;;;;;4.28;2.40;;;;;;;;;;4992276;28;20034;-82
2023/07/23 07:38:35;;;;;;;4.35;2.47;;;;;;;;;;4992580;28;20034;-81
2023/07/23 07:41:01;;;;;;;4.35;2.40;;;;;;;;;;4990671;28;20057;-81
2023/07/23 07:43:27;;;;;;;4.55;2.20;;;;;;;;;;4990275;28;20370;-82
2023/07/23 07:45:58;;;;;;;7.35;2.60;;;;;;;;;;4989179;28;20050;-82
2023/07/23 07:48:23;;;;;;;3.70;2.10;;;;;;;;;;4985951;28;20031;-82
2023/07/23 07:51:06;;;;;;;3.80;2.47;;;;;;;;;;4986491;28;20106;-82
2023/07/23 07:53:33;;;;;;;2.90;2.20;;;;;;;;;;4992104;28;20456;-82
2023/07/23 07:56:00;;;;;;;3.53;2.33;;;;;;;;;;4992114;28;20092;-82
2023/07/23 07:58:27;;;;;;;3.58;2.38;;;;;;;;;;4993203;28;20355;-82
2023/07/23 08:00:53;;;;;;;4.10;2.50;;;;;;;;;;4995159;28;20044;-85
2023/07/23 08:03:19;;;;;;;4.22;2.53;;;;;;;;;;4976974;28;20417;-82
2023/07/23 08:05:45;;;;;;;3.95;2.28;;;;;;;;;;4992888;28;20518;-82
2023/07/23 08:08:13;;;;;;;3.40;2.30;;;;;;;;;;4993202;28;20363;-83
2023/07/23 08:10:39;;;;;;;4.45;2.30;;;;;;;;;;4975675;28;20041;-83
2023/07/23 08:13:05;;;;;;;3.97;2.35;;;;;;;;;;4993030;28;20054;-83
2023/07/23 08:15:31;;;;;;;4.97;2.50;;;;;;;;;;4993749;28;20398;-83
2023/07/23 08:17:58;;;;;;;2.78;2.25;;;;;;;;;;4992761;28;20034;-83
2023/07/23 08:20:26;;;;;;;4.40;2.20;;;;;;;;;;4993680;28;20038;-83
2023/07/23 08:22:52;;;;;;;3.25;2.30;;;;;;;;;;4993822;28;20385;-82
2023/07/23 08:25:19;;;;;;;4.22;2.40;;;;;;;;;;4976242;28;20034;-82
2023/07/23 08:27:45;;;;;;;3.13;2.25;;;;;;;;;;4992720;28;20061;-82
2023/07/23 08:30:11;;;;;;;3.80;2.30;;;;;;;;;;4993370;28;20035;-82
2023/07/23 08:32:37;;;;;;;4.90;2.40;;;;;;;;;;4992638;28;20168;-82
2023/07/23 08:35:02;;;;;;;3.38;2.40;;;;;;;;;;4992802;28;20049;-82
2023/07/23 08:37:29;;;;;;;3.85;2.70;;;;;;;;;;4992334;28;20112;-82
2023/07/23 08:39:55;;;;;;;3.38;2.45;;;;;;;;;;4975398;28;20026;-82
2023/07/23 08:42:35;;;;;;;4.05;2.40;;;;;;;;;;4993292;28;20512;-82
2023/07/23 08:45:22;;;;;;;3.33;2.30;;;;;;;;;;4992969;28;20042;-86
2023/07/23 08:47:48;;;;;;;8.15;2.40;;;;;;;;;;4992326;28;20133;-82
2023/07/23 08:50:14;;;;;;;3.25;2.17;;;;;;;;;;4990124;28;20105;-82
2023/07/23 08:52:41;;;;;;;3.80;2.40;;;;;;;;;;4994404;28;20053;-85
2023/07/23 08:55:11;;;;;;;5.63;2.20;;;;;;;;;;4992924;28;20030;-84
2023/07/23 08:57:37;;;;;;;3.28;2.33;;;;;;;;;;4975856;28;20022;-85
2023/07/23 09:00:03;;;;;;;3.63;2.55;;;;;;;;;;4994880;28;20453;-86
2023/07/23 09:02:28;;;;;;;3.42;2.40;;;;;;;;;;4992511;28;20573;-83
2023/07/23 09:04:54;;;;;;;3.30;2.30;;;;;;;;;;4992337;28;20073;-85
2023/07/23 09:07:20;;;;;;;5.10;2.42;;;;;;;;;;4990553;28;20035;-82
2023/07/23 09:09:49;;;;;;;3.20;2.30;;;;;;;;;;4991692;28;20420;-81
2023/07/23 09:12:15;;;;;;;3.70;2.35;;;;;;;;;;4990552;28;20089;-81
2023/07/23 09:14:42;;;;;;;3.67;2.20;;;;;;;;;;4991796;28;20044;-82
2023/07/23 09:17:17;;;;;;;2.75;2.20;;;;;;;;;;4992046;28;20127;-83
2023/07/23 09:19:42;;;;;;;5.43;2.33;;;;;;;;;;4992184;28;20486;-83
2023/07/23 09:22:08;;;;;;;4.35;2.20;;;;;;;;;;4995706;28;20199;-82
2023/07/23 09:24:33;;;;;;;4.13;2.50;;;;;;;;;;4994723;28;20038;-82
2023/07/23 09:27:00;;;;;;;3.13;2.10;;;;;;;;;;4995615;28;20035;-81
2023/07/23 09:29:34;;;;;;;3.63;2.20;;;;;;;;;;4994282;28;20038;-83
2023/07/23 09:32:00;;;;;;;4.05;2.03;;;;;;;;;;4996198;28;20038;-82
2023/07/23 09:34:25;;;;;;;4.15;2.33;;;;;;;;;;4995939;28;20053;-82
2023/07/23 09:36:52;;;;;;;4.45;2.05;;;;;;;;;;4995793;28;20045;-82
2023/07/23 09:39:17;;;;;;;2.97;2.28;;;;;;;;;;4980281;28;20129;-80
2023/07/23 09:41:43;;;;;;;3.10;2.15;;;;;;;;;;4992748;28;20081;-81
2023/07/23 09:44:10;;;;;;;5.25;2.20;;;;;;;;;;4992071;28;20418;-82
2023/07/23 09:46:38;;;;;;;2.97;2.20;;;;;;;;;;4987744;28;20042;-82
2023/07/23 09:49:03;;;;;;;5.28;2.40;;;;;;;;;;4993642;28;20449;-82
2023/07/23 09:51:32;;;;;;;3.13;2.30;;;;;;;;;;4993710;28;20811;-82
2023/07/23 09:54:02;;;;;;;4.97;2.42;;;;;;;;;;4977083;28;20041;-84
2023/07/23 09:56:28;;;;;;;3.40;2.40;;;;;;;;;;4994814;28;20040;-82
2023/07/23 09:58:54;;;;;;;5.18;2.20;;;;;;;;;;4994620;28;20116;-84
2023/07/23 10:01:20;;;;;;;3.35;2.35;;;;;;;;;;4994759;28;20038;-83
2023/07/23 10:03:48;;;;;;;4.05;2.20;;;;;;;;;;4977156;28;20039;-83
2023/07/23 10:06:15;;;;;;;3.50;2.22;;;;;;;;;;4994465;28;20077;-83
2023/07/23 10:08:44;;;;;;;3.40;2.38;;;;;;;;;;4995025;28;20045;-83
2023/07/23 10:11:12;;;;;;;4.97;2.42;;;;;;;;;;4995222;28;20030;-83
2023/07/23 10:13:38;;;;;;;4.45;2.90;;;;;;;;;;4996197;28;20555;-81
2023/07/23 10:16:08;;;;;;;4.13;3.03;;;;;;;;;;4993449;28;20137;-84
2023/07/23 10:18:38;;;;;;;4.40;2.97;;;;;;;;;;4994672;28;20117;-83
2023/07/23 10:21:06;;;;;;;4.53;3.00;;;;;;;;;;4996300;28;20030;-82
2023/07/23 10:23:32;;;;;;;3.83;2.75;;;;;;;;;;4996964;28;20160;-83
2023/07/23 10:26:20;;;;;;;4.15;2.83;;;;;;;;;;4979968;28;20514;-83
2023/07/23 10:28:48;;;;;;;4.65;2.95;;;;;;;;;;4997454;28;20042;-83
2023/07/23 10:31:20;;;;;;;5.15;2.83;;;;;;;;;;4980757;28;20682;-83
2023/07/23 10:33:47;;;;;;;5.00;3.08;;;;;;;;;;4980374;28;20038;-83
2023/07/23 10:36:13;;;;;;;3.95;2.80;;;;;;;;;;4997493;28;20050;-84
2023/07/23 10:38:38;;;;;;;4.53;2.83;;;;;;;;;;4997814;28;20057;-83
2023/07/23 10:41:05;;;;;;;3.92;2.70;;;;;;;;;;4995736;28;20405;-84
2023/07/23 10:43:45;;;;;;;4.07;2.63;;;;;;;;;;4980380;28;20046;-83
2023/07/23 10:46:17;;;;;;;4.25;2.90;;;;;;;;;;4991420;28;20030;-84
2023/07/23 10:48:48;;;;;;;4.13;3.07;;;;;;;;;;4998069;28;20026;-83
2023/07/23 10:51:17;;;;;;;6.72;3.45;;;;;;;;;;4996118;28;20057;-83
2023/07/23 10:54:02;;;;;;;4.45;2.92;;;;;;;;;;4993145;28;20042;-84
2023/07/23 10:56:38;;;;;;;4.70;3.17;;;;;;;;;;4997012;28;20409;-83
2023/07/23 10:59:09;;;;;;;4.45;2.90;;;;;;;;;;4997393;28;20094;-83
2023/07/23 11:01:39;;;;;;;4.53;3.13;;;;;;;;;;4997639;28;20034;-84
2023/07/23 11:04:09;;;;;;;4.30;3.00;;;;;;;;;;4980461;28;20038;-83
2023/07/23 11:06:35;;;;;;;4.88;3.20;;;;;;;;;;4998178;28;20118;-83
2023/07/23 11:09:08;;;;;;;6.95;5.18;;;;;;;;;;4998309;28;20042;-84
2023/07/23 11:11:39;;;;;;;7.97;3.40;;;;;;;;;;4998420;28;20041;-84
2023/07/23 11:14:18;;;;;;;11.70;9.32;;;;;;;;;;4995726;28;20046;-84
2023/07/23 11:16:44;;;;;;;4.35;3.22;;;;;;;;;;4996836;28;20045;-84
2023/07/23 11:19:10;;;;;;;5.63;3.33;;;;;;;;;;4998004;28;20043;-83
2023/07/23 11:21:44;;;;;;;4.30;2.95;;;;;;;;;;4994524;28;20025;-83
2023/07/23 11:24:09;;;;;;;4.15;2.90;;;;;;;;;;4994144;28;20398;-85
2023/07/23 11:26:35;;;;;;;4.30;3.15;;;;;;;;;;4994914;28;20034;-84
2023/07/23 11:29:03;;;;;;;4.25;2.90;;;;;;;;;;4994375;28;20460;-84
2023/07/23 11:31:29;;;;;;;4.30;3.03;;;;;;;;;;4993202;28;20484;-85
2023/07/23 11:33:56;;;;;;;4.57;2.92;;;;;;;;;;4993582;28;20042;-85
2023/07/23 11:36:22;;;;;;;4.88;2.90;;;;;;;;;;4992433;28;20425;-85
2023/07/23 11:38:56;;;;;;;4.00;3.00;;;;;;;;;;4994808;28;20027;-84
2023/07/23 11:41:37;;;;;;;4.47;3.08;;;;;;;;;;4991545;28;20478;-85
2023/07/23 11:44:03;;;;;;;4.50;3.00;;;;;;;;;;4992754;28;20042;-85
2023/07/23 11:46:40;;;;;;;5.60;2.80;;;;;;;;;;4993368;28;20042;-83
2023/07/23 11:49:08;;;;;;;3.95;3.05;;;;;;;;;;4992853;28;20038;-85
2023/07/23 11:51:34;;;;;;;3.95;3.03;;;;;;;;;;4993935;28;20038;-85
2023/07/23 11:54:02;;;;;;;4.57;3.10;;;;;;;;;;4994599;28;20042;-84
2023/07/23 11:56:30;;;;;;;3.80;2.90;;;;;;;;;;4976425;28;20611;-85
2023/07/23 11:59:00;;;;;;;5.00;3.47;;;;;;;;;;4993021;28;20030;-84
2023/07/23 12:01:26;;;;;;;4.20;3.00;;;;;;;;;;4989709;28;20073;-85
2023/07/23 12:03:52;;;;;;;4.22;3.30;;;;;;;;;;4993416;28;20026;-85
2023/07/23 12:06:17;;;;;;;5.47;3.33;;;;;;;;;;4995367;28;20049;-85
2023/07/23 12:08:44;;;;;;;4.85;3.20;;;;;;;;;;4975384;28;20034;-85
2023/07/23 12:11:11;;;;;;;4.97;3.35;;;;;;;;;;4979105;28;20145;-84
2023/07/23 12:13:45;;;;;;;5.55;3.42;;;;;;;;;;4994982;28;20049;-86
2023/07/23 12:16:13;;;;;;;4.28;3.30;;;;;;;;;;4995663;28;20329;-85
2023/07/23 12:18:47;;;;;;;4.95;3.25;;;;;;;;;;4990833;28;20030;-85
2023/07/23 12:21:19;;;;;;;4.30;3.38;;;;;;;;;;4990360;28;20045;-84
2023/07/23 12:23:44;;;;;;;4.75;3.30;;;;;;;;;;4993830;28;20106;-86
2023/07/23 12:26:10;;;;;;;5.07;3.38;;;;;;;;;;4992777;28;20125;-86
2023/07/23 12:28:35;;;;;;;6.70;3.47;;;;;;;;;;4974166;28;20105;-85
2023/07/23 12:31:01;;;;;;;4.30;3.30;;;;;;;;;;4993928;28;20037;-86
2023/07/23 12:33:26;;;;;;;3.97;3.08;;;;;;;;;;4991563;28;20423;-86
2023/07/23 12:35:52;;;;;;;6.10;3.33;;;;;;;;;;4993471;28;20072;-87
2023/07/23 12:38:17;;;;;;;4.82;3.40;;;;;;;;;;4993543;28;20063;-86
2023/07/23 12:40:43;;;;;;;5.28;3.40;;;;;;;;;;4991755;28;20037;-87
2023/07/23 12:43:08;;;;;;;7.00;3.78;;;;;;;;;;4991463;28;20037;-86
2023/07/23 12:45:36;;;;;;;6.32;3.60;;;;;;;;;;4993167;28;20128;-86
2023/07/23 12:48:03;;;;;;;4.20;3.38;;;;;;;;;;4993165;28;20037;-86
2023/07/23 12:50:28;;;;;;;4.68;3.28;;;;;;;;;;4994781;28;20038;-86
2023/07/23 12:52:54;;;;;;;6.50;3.55;;;;;;;;;;4997415;28;20057;-87
2023/07/23 12:55:19;;;;;;;4.85;3.65;;;;;;;;;;5000142;28;20038;-87
2023/07/23 12:57:45;;;;;;;4.70;3.20;;;;;;;;;;5000204;28;20395;-86
2023/07/23 13:00:11;;;;;;;5.35;3.35;;;;;;;;;;4996201;28;20030;-81
2023/07/23 13:02:36;;;;;;;5.00;3.33;;;;;;;;;;4998402;28;20038;-82
2023/07/23 13:05:02;;;;;;;5.00;3.63;;;;;;;;;;4998274;28;20073;-84
2023/07/23 13:07:27;;;;;;;4.72;3.30;;;;;;;;;;4984760;28;20030;-83
2023/07/23 13:09:53;;;;;;;4.63;3.50;;;;;;;;;;5002403;28;20038;-88
2023/07/23 13:12:18;;;;;;;5.50;3.70;;;;;;;;;;5005730;28;20131;-87
2023/07/23 13:14:44;;;;;;;4.65;3.40;;;;;;;;;;4988236;28;20035;-86
2023/07/23 13:17:09;;;;;;;6.53;3.67;;;;;;;;;;5008323;28;20046;-87
2023/07/23 13:19:34;;;;;;;4.68;3.40;;;;;;;;;;5008765;28;20030;-86
2023/07/23 13:22:00;;;;;;;7.43;3.60;;;;;;;;;;5009529;28;20042;-86
2023/07/23 13:24:25;;;;;;;4.78;3.67;;;;;;;;;;5009953;28;20499;-87
2023/07/23 13:26:51;;;;;;;4.43;3.50;;;;;;;;;;5008897;28;20038;-86
2023/07/23 13:29:16;;;;;;;6.43;3.60;;;;;;;;;;5008993;28;20046;-87
2023/07/23 13:31:42;;;;;;;5.38;3.58;;;;;;;;;;5010519;28;20042;-87
2023/07/23 13:34:07;;;;;;;4.45;3.53;;;;;;;;;;5010103;28;20042;-88
2023/07/23 13:36:32;;;;;;;4.57;3.25;;;;;;;;;;5005240;28;20089;-87
2023/07/23 13:38:58;;;;;;;6.70;3.80;;;;;;;;;;5001566;28;20042;-87
2023/07/23 13:41:23;;;;;;;6.32;3.70;;;;;;;;;;4999657;28;20050;-87
2023/07/23 13:43:49;;;;;;;5.00;3.58;;;;;;;;;;4999865;28;20084;-88
2023/07/23 13:46:15;;;;;;;8.60;3.65;;;;;;;;;;5000415;28;20519;-87
2023/07/23 13:48:40;;;;;;;6.65;3.50;;;;;;;;;;5001059;28;20046;-86
2023/07/23 13:51:06;;;;;;;4.65;3.70;;;;;;;;;;5000814;28;20407;-87
2023/07/23 13:53:31;;;;;;;4.88;3.60;;;;;;;;;;5000382;28;20030;-86
2023/07/23 13:55:57;;;;;;;4.93;3.65;;;;;;;;;;5000897;28;20046;-86
2023/07/23 13:58:22;;;;;;;6.90;3.90;;;;;;;;;;5000894;28;20093;-86
2023/07/23 14:00:48;;;;;;;5.00;3.50;;;;;;;;;;5000822;28;20030;-86
2023/07/23 14:03:13;;;;;;;7.00;4.10;;;;;;;;;;5001639;28;20038;-86
2023/07/23 14:05:39;;;;;;;5.15;3.85;;;;;;;;;;5000715;28;20041;-85
2023/07/23 14:08:04;;;;;;;5.50;3.72;;;;;;;;;;4999390;28;20061;-86
2023/07/23 14:10:30;;;;;;;4.78;3.58;;;;;;;;;;5002338;28;20037;-87
2023/07/23 14:12:55;;;;;;;5.18;3.92;;;;;;;;;;5001344;28;20038;-87
2023/07/23 14:15:21;;;;;;;5.35;3.63;;;;;;;;;;5004243;28;20041;-87
2023/07/23 14:17:47;;;;;;;4.75;3.60;;;;;;;;;;5001554;28;20046;-87
2023/07/23 14:20:12;;;;;;;5.88;3.67;;;;;;;;;;5000555;28;20030;-87
2023/07/23 14:22:38;;;;;;;5.07;3.60;;;;;;;;;;5001122;28;20042;-87
2023/07/23 14:25:03;;;;;;;5.22;3.40;;;;;;;;;;5003044;28;20057;-86
2023/07/23 14:27:29;;;;;;;5.13;3.88;;;;;;;;;;4981691;28;20057;-86
2023/07/23 14:29:54;;;;;;;6.75;3.83;;;;;;;;;;4999036;28;20093;-86
2023/07/23 14:32:20;;;;;;;5.35;3.78;;;;;;;;;;5000891;28;20505;-87
2023/07/23 14:34:46;;;;;;;5.53;3.70;;;;;;;;;;5001339;28;20042;-87
2023/07/23 14:37:11;;;;;;;5.63;3.90;;;;;;;;;;5000560;28;20061;-87
2023/07/23 14:39:40;;;;;;;3.97;3.25;;;;;;;;;;5000853;28;20033;-87